createdAt,value
2023-05-01T00:01:34.289Z,19.05
2023-05-01T00:03:36.053Z,19.05
2023-05-01T00:05:37.774Z,19.06
2023-05-01T00:07:39.214Z,19.05
2023-05-01T00:09:40.703Z,19.03
2023-05-01T00:11:42.093Z,19.03
2023-05-01T00:13:43.521Z,18.99
2023-05-01T00:15:44.927Z,18.99
2023-05-01T00:17:46.802Z,18.95
2023-05-01T00:19:52.792Z,18.93
2023-05-01T00:21:54.641Z,18.90
2023-05-01T00:23:56.139Z,18.92
2023-05-01T00:25:57.601Z,18.92
2023-05-01T00:27:59.808Z,18.93
2023-05-01T00:30:01.676Z,18.93
2023-05-01T00:32:03.268Z,18.93
2023-05-01T00:34:05.153Z,18.92
2023-05-01T00:36:07.234Z,18.94
2023-05-01T00:38:08.627Z,18.93
2023-05-01T00:40:10.195Z,18.95
2023-05-01T00:42:12.050Z,18.94
2023-05-01T00:44:13.688Z,18.96
2023-05-01T00:46:15.327Z,18.97
2023-05-01T00:48:17.141Z,18.98
2023-05-01T00:50:18.609Z,18.99
2023-05-01T00:52:20.063Z,19.00
2023-05-01T00:54:23.020Z,19.01
2023-05-01T00:56:26.263Z,18.99
2023-05-01T00:58:28.836Z,19.00
2023-05-01T01:00:31.034Z,19.01
2023-05-01T01:02:32.915Z,19.03
2023-05-01T01:04:34.737Z,19.02
2023-05-01T01:06:47.172Z,19.00
2023-05-01T01:09:27.329Z,19.00
2023-05-01T01:11:36.393Z,18.99
2023-05-01T01:13:51.979Z,18.97
2023-05-01T01:16:13.813Z,18.96
2023-05-01T01:19:02.382Z,18.96
2023-05-01T01:21:23.409Z,18.93
2023-05-01T01:23:35.105Z,18.93
2023-05-01T01:26:02.394Z,18.92
2023-05-01T01:28:33.070Z,18.90
2023-05-01T01:30:56.904Z,18.88
2023-05-01T01:33:35.849Z,18.88
2023-05-01T01:35:41.591Z,18.87
2023-05-01T01:38:05.609Z,18.86
2023-05-01T01:40:08.730Z,18.84
2023-05-01T01:42:15.824Z,18.83
2023-05-01T01:44:23.136Z,18.85
2023-05-01T01:46:26.394Z,18.84
2023-05-01T01:48:34.586Z,18.83
2023-05-01T01:50:39.126Z,18.84
2023-05-01T01:52:43.184Z,18.85
2023-05-01T01:54:54.630Z,18.84
2023-05-01T01:56:58.345Z,18.86
2023-05-01T01:59:01.331Z,18.85
2023-05-01T02:01:04.267Z,18.85
2023-05-01T02:03:06.559Z,18.86
2023-05-01T02:05:11.345Z,18.85
2023-05-01T02:07:14.794Z,18.86
2023-05-01T02:09:19.400Z,18.85
2023-05-01T02:11:22.124Z,18.86
2023-05-01T02:13:24.620Z,18.86
2023-05-01T02:15:27.914Z,18.86
2023-05-01T02:17:30.713Z,18.85
2023-05-01T02:19:34.600Z,18.85
2023-05-01T02:21:38.505Z,18.87
2023-05-01T02:23:40.491Z,18.86
2023-05-01T02:25:43.724Z,18.87
2023-05-01T02:27:50.365Z,18.84
2023-05-01T02:29:53.457Z,18.85
2023-05-01T02:31:55.653Z,18.84
2023-05-01T02:33:57.218Z,18.82
2023-05-01T02:35:58.651Z,18.84
2023-05-01T02:38:00.227Z,18.83
2023-05-01T02:40:02.878Z,18.82
2023-05-01T02:42:06.636Z,18.82
2023-05-01T02:44:11.319Z,18.83
2023-05-01T02:46:15.202Z,18.83
2023-05-01T02:48:21.866Z,18.83
2023-05-01T02:50:24.850Z,18.83
2023-05-01T02:52:26.683Z,18.83
2023-05-01T02:54:40.662Z,18.84
2023-05-01T02:56:42.244Z,18.82
2023-05-01T02:58:44.407Z,18.83
2023-05-01T03:00:48.023Z,18.81
2023-05-01T03:02:49.529Z,18.80
2023-05-01T03:04:50.992Z,18.80
2023-05-01T03:06:52.455Z,18.78
2023-05-01T03:08:53.978Z,18.73
2023-05-01T03:10:55.472Z,18.73
2023-05-01T03:12:57.129Z,18.69
2023-05-01T03:14:58.617Z,18.66
2023-05-01T03:17:00.053Z,18.65
2023-05-01T03:19:01.572Z,18.64
2023-05-01T03:21:03.017Z,18.61
2023-05-01T03:23:04.824Z,18.58
2023-05-01T03:25:08.221Z,18.54
2023-05-01T03:27:11.629Z,18.52
2023-05-01T03:29:13.354Z,18.48
2023-05-01T03:31:15.297Z,18.46
2023-05-01T03:33:16.807Z,18.44
2023-05-01T03:35:18.283Z,18.44
2023-05-01T03:37:19.737Z,18.42
2023-05-01T03:39:21.388Z,18.38
2023-05-01T03:41:48.935Z,18.35
2023-05-01T03:44:03.788Z,18.32
2023-05-01T03:46:09.756Z,18.29
2023-05-01T03:48:11.327Z,18.26
2023-05-01T03:50:14.420Z,18.23
2023-05-01T03:52:17.729Z,18.19
2023-05-01T03:54:19.837Z,18.18
2023-05-01T03:56:41.688Z,18.14
2023-05-01T03:58:43.615Z,18.12
2023-05-01T04:00:45.804Z,18.10
2023-05-01T04:02:47.486Z,18.10
2023-05-01T04:04:53.491Z,18.06
2023-05-01T04:06:54.958Z,18.04
2023-05-01T04:08:56.406Z,18.02
2023-05-01T04:10:57.831Z,18.00
2023-05-01T04:12:59.317Z,17.98
2023-05-01T04:15:01.061Z,17.97
2023-05-01T04:17:02.960Z,17.95
2023-05-01T04:19:09.236Z,17.94
2023-05-01T04:21:17.608Z,17.92
2023-05-01T04:23:22.098Z,17.89
2023-05-01T04:25:25.905Z,17.88
2023-05-01T04:27:32.676Z,17.87
2023-05-01T04:29:34.144Z,17.88
2023-05-01T04:31:36.222Z,17.87
2023-05-01T04:33:37.866Z,17.86
2023-05-01T04:35:40.281Z,17.85
2023-05-01T04:37:42.484Z,17.86
2023-05-01T04:39:44.633Z,17.85
2023-05-01T04:41:46.917Z,17.82
2023-05-01T04:43:48.656Z,17.82
2023-05-01T04:45:53.998Z,17.82
2023-05-01T04:47:55.445Z,17.79
2023-05-01T04:49:57.098Z,17.78
2023-05-01T04:51:58.745Z,17.77
2023-05-01T04:54:08.004Z,17.77
2023-05-01T04:56:11.482Z,17.77
2023-05-01T04:58:13.708Z,17.78
2023-05-01T05:00:15.696Z,17.78
2023-05-01T05:02:26.167Z,17.77
2023-05-01T05:04:28.457Z,17.78
2023-05-01T05:06:31.350Z,17.79
2023-05-01T05:08:33.445Z,17.82
2023-05-01T05:10:43.115Z,17.81
2023-05-01T05:13:04.807Z,17.83
2023-05-01T05:15:07.094Z,17.87
2023-05-01T05:17:10.378Z,17.87
2023-05-01T05:19:11.837Z,17.89
2023-05-01T05:21:16.425Z,17.93
2023-05-01T05:23:23.000Z,17.95
2023-05-01T05:25:24.914Z,17.98
2023-05-01T05:27:26.851Z,18.02
2023-05-01T05:29:28.340Z,18.09
2023-05-01T05:31:30.095Z,18.11
2023-05-01T05:33:31.874Z,18.14
2023-05-01T05:35:33.348Z,18.16
2023-05-01T05:37:34.878Z,18.19
2023-05-01T05:39:36.674Z,18.24
2023-05-01T05:41:38.188Z,18.29
2023-05-01T05:43:39.633Z,18.33
2023-05-01T05:45:42.869Z,18.36
2023-05-01T05:47:44.368Z,18.42
2023-05-01T05:49:46.062Z,18.48
2023-05-01T05:51:47.555Z,18.51
2023-05-01T05:53:50.757Z,18.58
2023-05-01T05:55:52.568Z,18.60
2023-05-01T05:57:54.011Z,18.66
2023-05-01T05:59:55.660Z,18.71
2023-05-01T06:01:59.329Z,18.75
2023-05-01T06:04:00.980Z,18.80
2023-05-01T06:06:04.727Z,18.86
2023-05-01T06:08:06.210Z,18.92
2023-05-01T06:10:08.377Z,18.96
2023-05-01T06:12:09.829Z,19.02
2023-05-01T06:14:12.212Z,19.08
2023-05-01T06:16:15.091Z,19.14
2023-05-01T06:18:16.790Z,19.19
2023-05-01T06:20:18.391Z,19.25
2023-05-01T06:22:20.561Z,19.31
2023-05-01T06:24:36.611Z,19.36
2023-05-01T06:26:38.460Z,19.42
2023-05-01T06:28:40.133Z,19.48
2023-05-01T06:30:41.631Z,19.57
2023-05-01T06:32:44.597Z,19.64
2023-05-01T06:34:46.286Z,19.75
2023-05-01T06:36:51.487Z,19.83
2023-05-01T06:38:53.005Z,19.90
2023-05-01T06:40:55.616Z,19.97
2023-05-01T06:42:57.755Z,20.04
2023-05-01T06:45:03.702Z,20.10
2023-05-01T06:47:05.416Z,20.18
2023-05-01T06:49:07.813Z,20.22
2023-05-01T06:51:09.565Z,20.25
2023-05-01T06:53:11.296Z,20.26
2023-05-01T06:55:12.954Z,20.26
2023-05-01T06:57:14.384Z,20.27
2023-05-01T06:59:15.911Z,20.28
2023-05-01T07:01:17.607Z,20.31
2023-05-01T07:03:19.245Z,20.32
2023-05-01T07:05:21.051Z,20.33
2023-05-01T07:07:23.299Z,20.35
2023-05-01T07:09:24.810Z,20.35
2023-05-01T07:11:26.882Z,20.38
2023-05-01T07:13:28.432Z,20.39
2023-05-01T07:15:29.887Z,20.41
2023-05-01T07:17:31.347Z,20.43
2023-05-01T07:19:32.854Z,20.46
2023-05-01T07:21:34.367Z,20.45
2023-05-01T07:23:35.825Z,20.49
2023-05-01T07:25:37.769Z,20.51
2023-05-01T07:27:39.388Z,20.55
2023-05-01T07:29:40.827Z,20.60
2023-05-01T07:31:42.514Z,20.64
2023-05-01T07:33:44.865Z,20.72
2023-05-01T07:35:46.522Z,20.75
2023-05-01T07:37:51.622Z,20.79
2023-05-01T07:39:53.156Z,20.83
2023-05-01T07:41:57.224Z,20.88
2023-05-01T07:43:59.756Z,20.92
2023-05-01T07:46:01.593Z,20.98
2023-05-01T07:48:03.254Z,21.04
2023-05-01T07:50:05.676Z,21.12
2023-05-01T07:52:07.815Z,21.21
2023-05-01T07:54:09.261Z,21.31
2023-05-01T07:56:11.203Z,21.37
2023-05-01T07:58:12.743Z,21.45
2023-05-01T08:00:14.767Z,21.64
2023-05-01T08:02:17.580Z,21.65
2023-05-01T08:04:19.270Z,21.70
2023-05-01T08:06:21.112Z,21.72
2023-05-01T08:08:22.805Z,21.73
2023-05-01T08:10:24.285Z,21.77
2023-05-01T08:12:28.803Z,21.81
2023-05-01T08:14:30.798Z,21.87
2023-05-01T08:16:34.022Z,21.89
2023-05-01T08:18:35.685Z,21.92
2023-05-01T08:20:37.145Z,21.96
2023-05-01T08:22:38.540Z,21.97
2023-05-01T08:24:41.908Z,22.02
2023-05-01T08:26:43.467Z,22.04
2023-05-01T08:28:44.895Z,22.09
2023-05-01T08:30:46.443Z,22.15
2023-05-01T08:32:47.915Z,22.21
2023-05-01T08:34:49.648Z,22.29
2023-05-01T08:36:51.075Z,22.37
2023-05-01T08:38:52.863Z,22.46
2023-05-01T08:40:56.607Z,22.53
2023-05-01T08:43:00.348Z,22.59
2023-05-01T08:45:04.115Z,22.65
2023-05-01T08:47:16.166Z,22.69
2023-05-01T08:49:18.535Z,22.73
2023-05-01T08:51:23.000Z,22.77
2023-05-01T08:53:26.074Z,22.82
2023-05-01T08:55:30.053Z,22.86
2023-05-01T08:57:32.887Z,22.91
2023-05-01T08:59:35.331Z,22.94
2023-05-01T09:01:37.970Z,23.00
2023-05-01T09:03:39.625Z,23.04
2023-05-01T09:05:41.135Z,23.06
2023-05-01T09:07:43.486Z,23.09
2023-05-01T09:09:44.921Z,23.12
2023-05-01T09:11:46.478Z,23.15
2023-05-01T09:13:48.139Z,23.16
2023-05-01T09:15:49.761Z,23.17
2023-05-01T09:17:51.339Z,23.20
2023-05-01T09:19:53.275Z,23.21
2023-05-01T09:21:55.830Z,23.21
2023-05-01T09:23:57.378Z,23.23
2023-05-01T09:26:00.533Z,23.23
2023-05-01T09:28:04.954Z,23.25
2023-05-01T09:30:07.543Z,23.23
2023-05-01T09:32:23.521Z,23.23
2023-05-01T09:34:25.055Z,23.28
2023-05-01T09:36:29.714Z,23.29
2023-05-01T09:38:31.771Z,23.26
2023-05-01T09:40:33.793Z,23.11
2023-05-01T09:42:41.110Z,22.91
2023-05-01T09:44:45.732Z,22.70
2023-05-01T09:46:47.658Z,22.55
2023-05-01T09:48:57.287Z,22.43
2023-05-01T09:50:59.269Z,22.34
2023-05-01T09:53:02.095Z,22.17
2023-05-01T09:55:30.010Z,22.04
2023-05-01T09:57:38.270Z,22.00
2023-05-01T09:59:39.785Z,21.98
2023-05-01T10:01:43.566Z,22.00
2023-05-01T10:03:48.081Z,22.03
2023-05-01T10:05:50.033Z,22.06
2023-05-01T10:08:05.707Z,22.07
2023-05-01T10:10:21.185Z,22.07
2023-05-01T10:12:27.107Z,22.07
2023-05-01T10:14:30.387Z,22.07
2023-05-01T10:16:34.829Z,22.05
2023-05-01T10:18:37.749Z,22.03
2023-05-01T10:20:39.485Z,22.02
2023-05-01T10:22:41.521Z,22.00
2023-05-01T10:24:46.226Z,22.00
2023-05-01T10:26:49.077Z,22.02
2023-05-01T10:28:50.590Z,22.04
2023-05-01T10:30:52.975Z,22.09
2023-05-01T10:32:54.652Z,22.11
2023-05-01T10:35:00.661Z,22.14
2023-05-01T10:37:18.138Z,22.17
2023-05-01T10:39:33.428Z,22.17
2023-05-01T10:42:06.221Z,22.19
2023-05-01T10:44:20.759Z,22.20
2023-05-01T10:46:24.135Z,22.24
2023-05-01T10:48:37.742Z,22.25
2023-05-01T10:51:10.737Z,22.22
2023-05-01T10:53:12.413Z,22.23
2023-05-01T10:55:36.453Z,22.24
2023-05-01T10:57:44.477Z,22.24
2023-05-01T11:00:04.992Z,22.21
2023-05-01T11:02:22.262Z,22.20
2023-05-01T11:04:24.492Z,22.19
2023-05-01T11:06:27.135Z,22.17
2023-05-01T11:08:32.546Z,22.17
2023-05-01T11:10:34.006Z,22.16
2023-05-01T11:12:47.530Z,22.14
2023-05-01T11:15:04.565Z,22.10
2023-05-01T11:17:05.979Z,22.07
2023-05-01T11:19:09.870Z,22.04
2023-05-01T11:21:11.453Z,21.96
2023-05-01T11:23:17.585Z,21.91
2023-05-01T11:25:27.694Z,21.92
2023-05-01T11:27:29.262Z,21.97
2023-05-01T11:29:34.782Z,22.00
2023-05-01T11:31:37.100Z,22.01
2023-05-01T11:33:38.597Z,21.99
2023-05-01T11:35:41.000Z,22.01
2023-05-01T11:37:44.682Z,21.97
2023-05-01T11:39:53.237Z,21.95
2023-05-01T11:42:08.831Z,21.93
2023-05-01T11:44:17.983Z,21.91
2023-05-01T11:46:29.849Z,21.86
2023-05-01T11:48:32.303Z,21.81
2023-05-01T11:50:36.053Z,21.77
2023-05-01T11:52:46.131Z,21.72
2023-05-01T11:54:48.485Z,21.67
2023-05-01T11:56:58.739Z,21.59
2023-05-01T11:59:09.387Z,21.71
2023-05-01T12:01:12.767Z,21.61
2023-05-01T12:03:15.558Z,21.50
2023-05-01T12:05:17.364Z,21.42
2023-05-01T12:07:23.395Z,21.36
2023-05-01T12:09:29.137Z,21.28
2023-05-01T12:11:30.792Z,21.24
2023-05-01T12:13:32.829Z,21.19
2023-05-01T12:15:36.868Z,21.13
2023-05-01T12:17:38.378Z,21.08
2023-05-01T12:19:48.935Z,21.02
2023-05-01T12:22:06.068Z,20.94
2023-05-01T12:24:18.708Z,20.90
2023-05-01T12:26:25.629Z,20.86
2023-05-01T12:28:28.019Z,20.83
2023-05-01T12:30:29.874Z,20.78
2023-05-01T12:32:32.378Z,20.76
2023-05-01T12:34:34.329Z,20.74
2023-05-01T12:36:37.589Z,20.71
2023-05-01T12:38:39.145Z,20.70
2023-05-01T12:40:50.660Z,20.68
2023-05-01T12:42:58.219Z,20.66
2023-05-01T12:45:01.320Z,20.62
2023-05-01T12:47:06.094Z,20.61
2023-05-01T12:49:07.589Z,20.60
2023-05-01T12:51:09.135Z,20.58
2023-05-01T12:53:10.842Z,20.56
2023-05-01T12:55:12.817Z,20.56
2023-05-01T12:57:15.960Z,20.57
2023-05-01T12:59:22.548Z,20.57
2023-05-01T13:01:28.102Z,20.57
2023-05-01T13:03:30.940Z,20.48
2023-05-01T13:05:33.587Z,20.30
2023-05-01T13:07:36.282Z,20.28
2023-05-01T13:09:37.910Z,20.29
2023-05-01T13:11:39.330Z,20.31
2023-05-01T13:13:41.681Z,20.32
2023-05-01T13:15:43.168Z,20.31
2023-05-01T13:17:44.618Z,20.31
2023-05-01T13:19:54.401Z,20.27
2023-05-01T13:21:57.511Z,20.26
2023-05-01T13:24:00.893Z,20.23
2023-05-01T13:26:04.313Z,20.23
2023-05-01T13:28:06.933Z,20.19
2023-05-01T13:30:09.756Z,20.17
2023-05-01T13:32:11.431Z,20.12
2023-05-01T13:34:21.818Z,20.08
2023-05-01T13:36:26.716Z,20.04
2023-05-01T13:38:29.086Z,20.00
2023-05-01T13:40:34.153Z,19.96
2023-05-01T13:42:36.426Z,19.94
2023-05-01T13:44:48.209Z,19.83
2023-05-01T13:46:49.966Z,19.48
2023-05-01T13:48:51.897Z,19.15
2023-05-01T13:50:53.416Z,18.99
2023-05-01T13:52:54.872Z,18.89
2023-05-01T13:54:56.862Z,18.84
2023-05-01T13:57:00.958Z,18.79
2023-05-01T13:59:03.145Z,18.76
2023-05-01T14:01:10.493Z,18.72
2023-05-01T14:03:13.064Z,18.85
2023-05-01T14:05:15.759Z,18.71
2023-05-01T14:07:19.096Z,18.62
2023-05-01T14:09:20.757Z,18.60
2023-05-01T14:11:22.185Z,18.61
2023-05-01T14:13:24.815Z,18.63
2023-05-01T14:15:26.877Z,18.70
2023-05-01T14:17:36.352Z,18.77
2023-05-01T14:19:39.678Z,18.85
2023-05-01T14:21:44.323Z,18.99
2023-05-01T14:23:45.888Z,19.11
2023-05-01T14:25:49.080Z,19.19
2023-05-01T14:27:52.504Z,19.38
2023-05-01T14:29:54.420Z,19.54
2023-05-01T14:31:56.617Z,19.50
2023-05-01T14:34:01.165Z,19.54
2023-05-01T14:36:02.588Z,19.61
2023-05-01T14:38:12.668Z,19.73
2023-05-01T14:40:14.462Z,19.83
2023-05-01T14:42:15.982Z,19.84
2023-05-01T14:44:20.409Z,20.00
2023-05-01T14:46:27.299Z,20.04
2023-05-01T14:48:36.241Z,20.03
2023-05-01T14:50:38.514Z,19.99
2023-05-01T14:52:39.973Z,20.14
2023-05-01T14:54:45.318Z,20.28
2023-05-01T14:56:48.361Z,20.39
2023-05-01T14:58:50.069Z,20.40
2023-05-01T15:00:51.699Z,20.23
2023-05-01T15:02:55.416Z,20.24
2023-05-01T15:04:57.180Z,20.36
2023-05-01T15:06:58.837Z,20.38
2023-05-01T15:09:00.869Z,20.31
2023-05-01T15:11:02.337Z,20.37
2023-05-01T15:13:03.745Z,20.47
2023-05-01T15:15:06.318Z,20.58
2023-05-01T15:17:07.839Z,20.73
2023-05-01T15:19:09.289Z,20.80
2023-05-01T15:21:11.063Z,20.75
2023-05-01T15:23:15.116Z,20.80
2023-05-01T15:25:18.997Z,20.94
2023-05-01T15:27:23.676Z,20.92
2023-05-01T15:29:28.408Z,20.87
2023-05-01T15:31:32.864Z,20.82
2023-05-01T15:33:38.168Z,21.00
2023-05-01T15:35:39.923Z,20.94
2023-05-01T15:37:41.376Z,20.79
2023-05-01T15:39:42.848Z,20.82
2023-05-01T15:41:44.278Z,20.83
2023-05-01T15:43:45.765Z,20.89
2023-05-01T15:45:47.309Z,20.88
2023-05-01T15:47:48.908Z,20.94
2023-05-01T15:49:50.382Z,20.88
2023-05-01T15:51:51.922Z,20.79
2023-05-01T15:53:53.347Z,20.85
2023-05-01T15:55:58.450Z,20.86
2023-05-01T15:57:59.956Z,20.78
2023-05-01T16:00:01.851Z,20.75
2023-05-01T16:02:07.359Z,20.73
2023-05-01T16:04:08.802Z,20.72
2023-05-01T16:06:11.494Z,20.71
2023-05-01T16:08:13.148Z,20.72
2023-05-01T16:10:14.601Z,20.71
2023-05-01T16:12:16.046Z,20.71
2023-05-01T16:14:17.747Z,20.69
2023-05-01T16:16:24.997Z,20.67
2023-05-01T16:18:26.489Z,20.61
2023-05-01T16:20:34.107Z,20.55
2023-05-01T16:22:35.549Z,20.51
2023-05-01T16:24:38.403Z,20.45
2023-05-01T16:26:40.741Z,20.35
2023-05-01T16:28:42.442Z,20.29
2023-05-01T16:30:44.945Z,20.19
2023-05-01T16:32:46.398Z,20.14
2023-05-01T16:34:49.268Z,20.08
2023-05-01T16:36:50.732Z,20.00
2023-05-01T16:38:52.513Z,19.97
2023-05-01T16:40:53.954Z,19.93
2023-05-01T16:42:56.099Z,19.87
2023-05-01T16:44:57.585Z,19.82
2023-05-01T16:46:59.028Z,19.76
2023-05-01T16:49:00.593Z,19.72
2023-05-01T16:51:05.277Z,19.67
2023-05-01T16:53:06.734Z,19.63
2023-05-01T16:55:09.137Z,19.60
2023-05-01T16:57:10.735Z,19.57
2023-05-01T16:59:12.348Z,19.52
2023-05-01T17:01:13.826Z,19.48
2023-05-01T17:03:16.157Z,19.45
2023-05-01T17:05:17.832Z,19.42
2023-05-01T17:07:22.503Z,19.39
2023-05-01T17:09:23.974Z,19.36
2023-05-01T17:11:31.807Z,19.32
2023-05-01T17:13:33.527Z,19.29
2023-05-01T17:15:34.970Z,19.28
2023-05-01T17:17:39.166Z,19.23
2023-05-01T17:19:41.039Z,19.20
2023-05-01T17:21:43.369Z,19.18
2023-05-01T17:23:44.916Z,19.16
2023-05-01T17:25:46.391Z,19.15
2023-05-01T17:27:47.801Z,19.14
2023-05-01T17:29:49.349Z,19.12
2023-05-01T17:31:50.918Z,19.11
2023-05-01T17:33:52.443Z,19.07
2023-05-01T17:35:55.204Z,19.05
2023-05-01T17:37:57.452Z,19.01
2023-05-01T17:39:59.147Z,18.96
2023-05-01T17:42:02.334Z,18.92
2023-05-01T17:44:03.846Z,18.89
2023-05-01T17:46:06.204Z,18.85
2023-05-01T17:48:08.105Z,18.81
2023-05-01T17:50:11.475Z,18.77
2023-05-01T17:52:12.895Z,18.76
2023-05-01T17:54:16.624Z,18.73
2023-05-01T17:56:21.003Z,18.70
2023-05-01T17:58:23.724Z,18.68
2023-05-01T18:00:28.793Z,18.64
2023-05-01T18:02:30.984Z,18.61
2023-05-01T18:04:32.546Z,18.58
2023-05-01T18:06:34.079Z,18.55
2023-05-01T18:08:35.705Z,18.50
2023-05-01T18:10:37.161Z,18.48
2023-05-01T18:12:38.850Z,18.46
2023-05-01T18:14:40.456Z,18.40
2023-05-01T18:16:42.023Z,18.38
2023-05-01T18:18:43.703Z,18.33
2023-05-01T18:20:45.124Z,18.30
2023-05-01T18:22:46.579Z,18.27
2023-05-01T18:24:48.270Z,18.24
2023-05-01T18:26:49.745Z,18.23
2023-05-01T18:28:51.167Z,18.21
2023-05-01T18:30:52.586Z,18.18
2023-05-01T18:32:54.021Z,18.14
2023-05-01T18:34:55.783Z,18.09
2023-05-01T18:36:57.256Z,18.05
2023-05-01T18:38:58.854Z,18.01
2023-05-01T18:41:00.425Z,17.99
2023-05-01T18:43:01.922Z,17.96
2023-05-01T18:45:03.967Z,17.92
2023-05-01T18:47:05.727Z,17.88
2023-05-01T18:49:07.307Z,17.84
2023-05-01T18:51:09.649Z,17.76
2023-05-01T18:53:11.171Z,17.77
2023-05-01T18:55:12.765Z,17.73
2023-05-01T18:57:14.232Z,17.66
2023-05-01T18:59:17.015Z,17.64
2023-05-01T19:01:18.519Z,17.59
2023-05-01T19:03:20.082Z,17.55
2023-05-01T19:05:22.727Z,17.51
2023-05-01T19:07:25.219Z,17.49
2023-05-01T19:09:26.651Z,17.43
2023-05-01T19:11:31.592Z,17.38
2023-05-01T19:13:33.296Z,17.33
2023-05-01T19:15:34.894Z,17.28
2023-05-01T19:17:36.686Z,17.26
2023-05-01T19:19:38.202Z,17.22
2023-05-01T19:21:39.625Z,17.17
2023-05-01T19:23:43.028Z,17.14
2023-05-01T19:25:44.492Z,17.08
2023-05-01T19:27:45.984Z,17.04
2023-05-01T19:29:47.481Z,17.02
2023-05-01T19:31:49.262Z,16.96
2023-05-01T19:33:53.640Z,16.93
2023-05-01T19:35:55.897Z,16.87
2023-05-01T19:37:58.571Z,16.85
2023-05-01T19:40:00.224Z,16.80
2023-05-01T19:42:02.776Z,16.76
2023-05-01T19:44:04.323Z,16.72
2023-05-01T19:46:07.034Z,16.66
2023-05-01T19:48:08.693Z,16.63
2023-05-01T19:50:10.720Z,16.60
2023-05-01T19:52:12.141Z,16.52
2023-05-01T19:54:13.582Z,16.49
2023-05-01T19:56:15.035Z,16.43
2023-05-01T19:58:16.530Z,16.40
2023-05-01T20:00:18.515Z,16.37
2023-05-01T20:02:20.105Z,16.32
2023-05-01T20:04:23.011Z,16.29
2023-05-01T20:06:24.727Z,16.22
2023-05-01T20:08:26.742Z,16.20
2023-05-01T20:10:28.254Z,16.17
2023-05-01T20:12:30.388Z,16.11
2023-05-01T20:14:34.024Z,16.07
2023-05-01T20:16:36.049Z,16.03
2023-05-01T20:18:37.728Z,15.96
2023-05-01T20:20:39.462Z,15.92
2023-05-01T20:22:40.910Z,15.89
2023-05-01T20:24:42.531Z,15.86
2023-05-01T20:26:44.000Z,15.82
2023-05-01T20:28:45.776Z,15.77
2023-05-01T20:30:48.481Z,15.73
2023-05-01T20:32:50.087Z,15.69
2023-05-01T20:34:55.191Z,15.66
2023-05-01T20:36:56.658Z,15.62
2023-05-01T20:38:58.220Z,15.59
2023-05-01T20:40:59.673Z,15.55
2023-05-01T20:43:01.195Z,15.51
2023-05-01T20:45:02.718Z,15.48
2023-05-01T20:47:04.114Z,15.44
2023-05-01T20:49:08.514Z,15.41
2023-05-01T20:51:10.268Z,15.36
2023-05-01T20:53:11.849Z,15.33
2023-05-01T20:55:13.555Z,15.29
2023-05-01T20:57:21.019Z,15.23
2023-05-01T20:59:22.473Z,15.21
2023-05-01T21:01:24.033Z,15.17
2023-05-01T21:03:26.531Z,15.15
2023-05-01T21:05:28.052Z,15.13
2023-05-01T21:07:29.696Z,15.08
2023-05-01T21:09:31.327Z,15.05
2023-05-01T21:11:32.957Z,15.01
2023-05-01T21:13:43.535Z,14.97
2023-05-01T21:15:45.155Z,14.95
2023-05-01T21:17:46.885Z,14.91
2023-05-01T21:19:48.500Z,14.88
2023-05-01T21:21:50.248Z,14.86
2023-05-01T21:23:52.535Z,14.83
2023-05-01T21:25:54.393Z,14.80
2023-05-01T21:27:55.884Z,14.78
2023-05-01T21:29:58.412Z,14.76
2023-05-01T21:32:04.165Z,14.71
2023-05-01T21:34:06.488Z,14.71
2023-05-01T21:36:07.949Z,14.68
2023-05-01T21:38:09.856Z,14.64
2023-05-01T21:40:14.797Z,14.62
2023-05-01T21:42:19.002Z,14.59
2023-05-01T21:44:22.530Z,14.56
2023-05-01T21:46:24.157Z,14.53
2023-05-01T21:48:25.678Z,14.51
2023-05-01T21:50:33.668Z,14.48
2023-05-01T21:52:35.583Z,14.44
2023-05-01T21:54:38.488Z,14.41
2023-05-01T21:56:40.051Z,14.38
2023-05-01T21:58:41.572Z,14.36
2023-05-01T22:00:43.256Z,14.36
2023-05-01T22:02:47.961Z,14.33
2023-05-01T22:04:54.587Z,14.29
2023-05-01T22:06:56.214Z,14.26
2023-05-01T22:08:57.676Z,14.25
2023-05-01T22:10:59.124Z,14.24
2023-05-01T22:13:00.814Z,14.21
2023-05-01T22:15:02.682Z,14.17
2023-05-01T22:17:04.653Z,14.15
2023-05-01T22:19:06.313Z,14.13
2023-05-01T22:21:07.793Z,14.12
2023-05-01T22:23:09.207Z,14.09
2023-05-01T22:25:12.224Z,14.08
2023-05-01T22:27:15.862Z,14.05
2023-05-01T22:29:18.722Z,14.02
2023-05-01T22:31:21.511Z,13.99
2023-05-01T22:33:24.401Z,13.99
2023-05-01T22:35:26.062Z,13.97
2023-05-01T22:37:27.582Z,13.92
2023-05-01T22:39:33.473Z,13.90
2023-05-01T22:41:35.146Z,13.87
2023-05-01T22:43:37.168Z,13.85
2023-05-01T22:45:39.537Z,13.83
2023-05-01T22:47:44.136Z,13.82
2023-05-01T22:49:45.751Z,13.80
2023-05-01T22:51:47.195Z,13.77
2023-05-01T22:53:49.561Z,13.74
2023-05-01T22:55:51.030Z,13.73
2023-05-01T22:57:52.599Z,13.69
2023-05-01T22:59:54.335Z,13.70
2023-05-01T23:01:56.022Z,13.68
2023-05-01T23:03:58.046Z,13.69
2023-05-01T23:06:02.602Z,13.66
2023-05-01T23:08:04.533Z,13.63
2023-05-01T23:10:14.548Z,13.62
2023-05-01T23:12:22.780Z,13.60
2023-05-01T23:14:25.698Z,13.62
2023-05-01T23:16:27.644Z,13.60
2023-05-01T23:18:33.205Z,13.58
2023-05-01T23:20:39.961Z,13.58
2023-05-01T23:22:41.760Z,13.55
2023-05-01T23:24:50.517Z,13.53
2023-05-01T23:26:52.136Z,13.52
2023-05-01T23:28:56.313Z,13.53
2023-05-01T23:30:59.808Z,13.52
2023-05-01T23:33:01.379Z,13.50
2023-05-01T23:35:12.578Z,13.46
2023-05-01T23:37:21.202Z,13.45
2023-05-01T23:39:22.751Z,13.44
2023-05-01T23:41:24.990Z,13.43
2023-05-01T23:43:26.735Z,13.43
2023-05-01T23:45:28.323Z,13.40
2023-05-01T23:47:30.130Z,13.42
2023-05-01T23:49:32.278Z,13.41
2023-05-01T23:51:33.983Z,13.38
2023-05-01T23:53:38.789Z,13.35
2023-05-01T23:55:42.685Z,13.34
2023-05-01T23:57:45.364Z,13.35
2023-05-01T23:59:50.135Z,13.34
